Brule, NE (69127)

10:09 PM MDT on August 31, 2015 (GMT -0600)
Searle | | Change Station
CLOSE
Current Station
Airport
Location: Ogallala,
Elevation: 3278 ft
Nearby Weather Stations

Elev 3278 ft 41.12 °N, 101.77 °W | Updated 34 minutes ago

Mostly Cloudy
Mostly Cloudy
77 °F
Feels Like 77 °F
N
15
Wind Variable Wind from East

Today
High -- | Low -- °F
--% Chance of Precip.
Yesterday
High -- | Low -- °F
Precip. -- in
6:12 AM 7:22 PM
Waning Gibbous, 92% visible
Pressure 29.97 in
Visibility 10.0 miles
Clouds Clear
Dew Point 59 °F
Humidity 54%
Rainfall 0.00 in
Snow Depth Not available.
UV 0 out of 12
Pollen 10.20 out of 12
Air Quality Not available.
Flu Activity Not available.
METAR KOGA 010335Z AUTO 09013KT 10SM CLR 25/15 A2997 RMK AO2 LTG DSNT SE AND S T02500150
Pressure 29.97 in
Visibility 10.0 miles
Clouds Clear
Dew Point 59 °F
Humidity 54%
Rainfall 0.00 in
Snow Depth Not available.
UV 0 out of 12
Pollen 10.20 out of 12
Air Quality Not available.
Flu Activity Not available.
METAR KOGA 010335Z AUTO 09013KT 10SM CLR 25/15 A2997 RMK AO2 LTG DSNT SE AND S T02500150
Nowcast | as of 10:00 PM CDT on August 31, 2015

Scattered thunderstorms in northeast Colorado will continue making their way across southwest Nebraska. At their current movement and assuming they can remain intact in the meantime...the storms should reach North Platte near 2 am CDT and Broken Bow about 3 am CDT. Meanwhile...areas of heavy rain can be expected along with gusty wind and small hail of less than half an inch in diameter in the area along and south of Nebraska Highway 2.

×

10-Day Weather Forecast

×

Almanac

Astronomy

Aug. 31, 2015 Rise Set
Actual Time
Civil Twilight
Nautical Twilight
Astronomical Twilight
Moon
Length of Visible Light
Length of Day
Tomorrow will be .
, % of the Moon is Illuminated

Today's Extremes

State Highs State Lows

Community

WunderPhotos

Upload Photos

1,851,477 photos uploaded!

WunderBlogs® & News

Nearby

Air Quality

  Air Quality AQ Index Pollutant
Not available.

Snow Depth

Station Depth Elevation

Earthquake Activity

City Distance Mag. Time & Date
Minimum magnitude displayed is 2.5.

Coastal Water Temperatures

Place Temperature

Stations

Nearby Weather Stations

Station Location Temp. Windchill Dew Point Humidity Wind Precip. Elev Updated Type